メインページ
METAR-TAF:

METAR-TAF

空港 :

美保飛行場, 日本

緯度: 35-29N, 経度: 133-15E, 海抜: 6m

現時点の気象観測

当レポートは52分前の23:00(UTC)に作成
南西の風 3kt
気温 1°C
湿度 80%
気圧 1023 hPa
視程10km以上
高度2500ftの雲はほとんどない
高度3500ftの千切れ雲あり
高度25000ftの千切れ雲あり

METAR: RJOH 182300Z 22003KT 9999 FEW025 BKN035 BKN250 01/M02 Q1023

時間: 08:52 (23:52 UTC)

予報

当レポートは39分前の23:13(UTC)に作成
予報は19日の 00時(UTC)から 20日の 06時(UTC)まで有効
南西の風 5kt
視程10km以上
高度1500ftの雲はほとんどない
高度6000ftの雲は散在している
19日の 03時(UTC)から 19日の 05時(UTC)まで徐々に
の風 4kt
19日の 10時(UTC)から 19日の 12時(UTC)まで徐々に
南/南西の風 5kt
19日の 21時(UTC)から 20日の 00時(UTC)まで一時的に
視程: 3000m
靄, 部分的に霧に覆われる
20日の 00時(UTC)から 20日の 03時(UTC)まで徐々に
の風 4kt

TAF: RJOH 182313Z 1900/2006 22005KT 9999 FEW015 SCT060 BECMG 1903/1905 01004KT BECMG 1910/1912 20005KT TEMPO 1921/2000 3000 BR PRFG BECMG 2000/2003 35004KT

4,000以上の空港の気象観測と天気予報(METAR報とTAF報)

利用可能な観測所は地図上に黄色い丸と赤い丸で示す。

丸の上にカーソルを重ねると観測所名を参照できる。

次にクリックすると気象観測と天気予報を参照できる。

マップの切り替え:黒色「×」印の緑ボタンをクリックして拡大、「-」印の緑ボタンをクリックして縮小、緑色の三角印をクリックして隣りの地図に切り替え


METAR-TAF: